createdAt,value
2018-01-27T00:01:37.783Z,10.50
2018-01-27T00:04:06.740Z,11.48
2018-01-27T00:06:35.359Z,9.80
2018-01-27T00:09:02.091Z,11.80
2018-01-27T00:11:28.598Z,10.98
2018-01-27T00:13:55.158Z,9.75
2018-01-27T00:16:21.668Z,10.68
2018-01-27T00:18:48.199Z,10.73
2018-01-27T00:21:14.674Z,9.90
2018-01-27T00:23:42.093Z,11.30
2018-01-27T00:26:09.120Z,11.02
2018-01-27T00:28:35.681Z,10.43
2018-01-27T00:31:02.737Z,10.95
2018-01-27T00:33:29.191Z,11.63
2018-01-27T00:35:55.943Z,12.65
2018-01-27T00:38:22.464Z,11.23
2018-01-27T00:40:49.007Z,11.50
2018-01-27T00:43:15.484Z,10.93
2018-01-27T00:45:42.758Z,11.60
2018-01-27T00:48:09.284Z,11.05
2018-01-27T00:50:35.763Z,11.77
2018-01-27T00:53:02.293Z,11.48
2018-01-27T00:55:28.773Z,11.35
2018-01-27T00:57:56.045Z,11.98
2018-01-27T01:00:22.726Z,12.65
2018-01-27T01:02:49.242Z,11.35
2018-01-27T01:05:15.790Z,10.98
2018-01-27T01:07:42.250Z,12.37
2018-01-27T01:10:09.040Z,14.65
2018-01-27T01:12:35.515Z,13.75
2018-01-27T01:15:01.976Z,12.32
2018-01-27T01:17:29.259Z,12.98
2018-01-27T01:19:55.716Z,12.93
2018-01-27T01:22:22.191Z,13.77
2018-01-27T01:24:49.550Z,12.68
2018-01-27T01:27:16.743Z,13.48
2018-01-27T01:29:43.286Z,12.80
2018-01-27T01:32:09.775Z,13.10
2018-01-27T01:34:36.258Z,14.05
2018-01-27T01:37:02.779Z,13.52
2018-01-27T01:39:29.279Z,12.82
2018-01-27T01:41:56.484Z,12.98
2018-01-27T01:44:26.964Z,14.32
2018-01-27T01:46:53.433Z,14.85
2018-01-27T01:49:23.781Z,12.10
2018-01-27T01:51:50.293Z,14.18
2018-01-27T01:54:16.916Z,14.20
2018-01-27T01:56:43.448Z,14.43
2018-01-27T01:59:09.904Z,13.15
2018-01-27T02:01:36.412Z,14.32
2018-01-27T02:04:02.928Z,13.68
2018-01-27T02:06:30.195Z,14.30
2018-01-27T02:08:56.641Z,13.30
2018-01-27T02:11:23.139Z,13.60
2018-01-27T02:13:50.355Z,12.10
2018-01-27T02:16:16.857Z,13.15
2018-01-27T02:18:43.305Z,13.50
2018-01-27T02:21:09.828Z,12.90
2018-01-27T02:23:36.317Z,13.10
2018-01-27T02:26:03.060Z,13.48
2018-01-27T02:28:29.543Z,13.23
2018-01-27T02:30:56.059Z,13.75
2018-01-27T02:33:22.503Z,13.82
2018-01-27T02:35:49.017Z,14.27
2018-01-27T02:38:15.546Z,14.07
2018-01-27T02:40:42.624Z,14.60
2018-01-27T02:43:09.118Z,13.57
2018-01-27T02:45:36.355Z,15.30
2018-01-27T02:48:02.897Z,13.30
2018-01-27T02:50:29.339Z,14.30
2018-01-27T02:52:56.575Z,13.38
2018-01-27T02:55:23.022Z,14.32
2018-01-27T02:57:50.261Z,14.75
2018-01-27T03:00:16.750Z,14.15
2018-01-27T03:02:43.248Z,14.00
2018-01-27T03:05:10.501Z,13.68
2018-01-27T03:07:37.841Z,14.90
2018-01-27T03:10:04.372Z,13.23
2018-01-27T03:12:31.597Z,14.23
2018-01-27T03:14:58.023Z,14.87
2018-01-27T03:17:24.551Z,14.43
2018-01-27T03:19:51.086Z,14.10
2018-01-27T03:22:17.556Z,13.45
2018-01-27T03:24:44.176Z,15.02
2018-01-27T03:27:10.701Z,14.57
2018-01-27T03:29:37.214Z,13.20
2018-01-27T03:32:08.617Z,14.00
2018-01-27T03:34:35.497Z,13.95
2018-01-27T03:37:02.312Z,14.25
2018-01-27T03:39:29.918Z,14.65
2018-01-27T03:41:56.598Z,14.57
2018-01-27T03:44:23.930Z,15.02
2018-01-27T03:46:50.438Z,13.93
2018-01-27T03:49:16.983Z,15.68
2018-01-27T03:51:51.055Z,16.00
2018-01-27T03:54:18.691Z,15.23
2018-01-27T03:56:45.248Z,17.40
2018-01-27T03:59:12.448Z,17.50
2018-01-27T04:01:38.878Z,15.70
2018-01-27T04:04:05.388Z,16.27
2018-01-27T04:06:31.857Z,16.80
2018-01-27T04:08:58.383Z,16.62
2018-01-27T04:11:25.058Z,16.52
2018-01-27T04:13:54.227Z,18.02
2018-01-27T04:16:20.787Z,16.65
2018-01-27T04:18:47.287Z,16.23
2018-01-27T04:21:13.751Z,18.80
2018-01-27T04:23:40.203Z,16.70
2018-01-27T04:26:07.501Z,17.30
2018-01-27T04:28:34.045Z,17.55
2018-01-27T04:31:12.324Z,19.30
2018-01-27T04:33:39.939Z,16.15
2018-01-27T04:36:07.971Z,16.25
2018-01-27T04:38:34.468Z,16.35
2018-01-27T04:41:01.782Z,19.17
2018-01-27T04:43:28.258Z,17.52
2018-01-27T04:45:55.471Z,16.58
2018-01-27T04:48:21.962Z,17.40
2018-01-27T04:50:48.423Z,18.65
2018-01-27T04:53:14.864Z,17.80
2018-01-27T04:55:41.360Z,16.73
2018-01-27T04:58:08.605Z,17.23
2018-01-27T05:00:35.847Z,17.50
2018-01-27T05:03:03.022Z,17.77
2018-01-27T05:05:29.514Z,17.70
2018-01-27T05:07:56.043Z,18.20
2018-01-27T05:10:22.535Z,17.90
2018-01-27T05:12:49.076Z,17.25
2018-01-27T05:15:15.592Z,19.98
2018-01-27T05:17:42.104Z,17.60
2018-01-27T05:20:09.341Z,17.77
2018-01-27T05:22:35.820Z,17.27
2018-01-27T05:25:02.440Z,16.98
2018-01-27T05:27:29.070Z,19.27
2018-01-27T05:29:55.602Z,17.70
2018-01-27T05:32:22.846Z,19.35
2018-01-27T05:34:49.444Z,19.67
2018-01-27T05:37:15.943Z,18.30
2018-01-27T05:39:42.396Z,17.62
2018-01-27T05:42:08.888Z,19.37
2018-01-27T05:44:36.139Z,18.02
2018-01-27T05:47:02.781Z,19.12
2018-01-27T05:49:30.054Z,17.08
2018-01-27T05:51:56.582Z,18.87
2018-01-27T05:54:23.934Z,19.45
2018-01-27T05:56:51.137Z,18.37
2018-01-27T05:59:18.466Z,19.05
2018-01-27T06:01:45.012Z,17.98
2018-01-27T06:04:11.890Z,17.95
2018-01-27T06:06:38.488Z,18.70
2018-01-27T06:09:04.959Z,17.30
2018-01-27T06:11:31.491Z,18.90
2018-01-27T06:13:57.976Z,17.35
2018-01-27T06:16:24.475Z,17.33
2018-01-27T06:18:50.914Z,18.80
2018-01-27T06:21:18.143Z,18.58
2018-01-27T06:23:45.355Z,17.37
2018-01-27T06:26:11.863Z,19.23
2018-01-27T06:28:39.116Z,18.75
2018-01-27T06:31:06.351Z,19.75
2018-01-27T06:33:33.587Z,18.75
2018-01-27T06:36:00.024Z,19.15
2018-01-27T06:38:26.571Z,20.45
2018-01-27T06:40:53.047Z,19.65
2018-01-27T06:43:19.535Z,18.92
2018-01-27T06:45:45.996Z,19.95
2018-01-27T06:48:12.504Z,18.45
2018-01-27T06:50:39.039Z,19.23
2018-01-27T06:53:05.508Z,17.60
2018-01-27T06:55:31.996Z,18.80
2018-01-27T06:57:58.513Z,19.95
2018-01-27T07:00:25.049Z,19.73
2018-01-27T07:02:51.539Z,20.27
2018-01-27T07:05:18.002Z,20.80
2018-01-27T07:07:44.471Z,20.05
2018-01-27T07:10:10.964Z,20.05
2018-01-27T07:12:37.486Z,21.35
2018-01-27T07:15:04.290Z,19.15
2018-01-27T07:17:31.553Z,20.25
2018-01-27T07:19:58.773Z,19.40
2018-01-27T07:22:25.404Z,20.02
2018-01-27T07:24:52.891Z,21.33
2018-01-27T07:27:19.549Z,20.20
2018-01-27T07:29:46.821Z,18.73
2018-01-27T07:32:13.618Z,19.85
2018-01-27T07:34:40.073Z,20.15
2018-01-27T07:37:07.325Z,21.52
2018-01-27T07:39:34.592Z,20.65
2018-01-27T07:42:01.092Z,19.37
2018-01-27T07:44:27.577Z,21.25
2018-01-27T07:46:54.140Z,19.77
2018-01-27T07:49:20.621Z,21.50
2018-01-27T07:51:47.245Z,20.55
2018-01-27T07:54:14.600Z,22.30
2018-01-27T07:56:41.854Z,21.85
2018-01-27T07:59:09.294Z,23.27
2018-01-27T08:01:35.755Z,24.67
2018-01-27T08:04:02.527Z,22.70
2018-01-27T08:06:28.988Z,22.33
2018-01-27T08:08:55.467Z,22.25
2018-01-27T08:11:22.000Z,20.00
2018-01-27T08:13:48.468Z,20.70
2018-01-27T08:16:14.924Z,22.30
2018-01-27T08:18:41.451Z,20.35
2018-01-27T08:21:08.154Z,20.60
2018-01-27T08:23:34.660Z,20.10
2018-01-27T08:26:01.952Z,19.40
2018-01-27T08:28:28.449Z,20.20
2018-01-27T08:30:55.640Z,18.42
2018-01-27T08:33:22.322Z,19.12
2018-01-27T08:35:48.839Z,21.25
2018-01-27T08:38:15.403Z,21.02
2018-01-27T08:40:44.749Z,20.55
2018-01-27T08:43:11.377Z,21.17
2018-01-27T08:45:37.824Z,23.25
2018-01-27T08:48:04.375Z,22.62
2018-01-27T08:50:30.858Z,21.85
2018-01-27T08:52:57.380Z,24.05
2018-01-27T08:55:24.708Z,22.95
2018-01-27T08:57:51.242Z,22.90
2018-01-27T09:00:18.649Z,22.40
2018-01-27T09:02:45.174Z,21.35
2018-01-27T09:05:11.636Z,20.90
2018-01-27T09:07:38.541Z,22.40
2018-01-27T09:10:05.928Z,21.45
2018-01-27T09:12:32.411Z,21.73
2018-01-27T09:14:58.964Z,20.67
2018-01-27T09:17:26.184Z,19.92
2018-01-27T09:19:52.804Z,22.27
2018-01-27T09:22:19.294Z,20.00
2018-01-27T09:24:46.595Z,20.35
2018-01-27T09:27:13.863Z,18.83
2018-01-27T09:29:40.428Z,20.55
2018-01-27T09:32:07.658Z,20.20
2018-01-27T09:34:34.208Z,19.00
2018-01-27T09:37:01.512Z,18.65
2018-01-27T09:39:28.011Z,17.75
2018-01-27T09:41:54.574Z,17.63
2018-01-27T09:44:21.123Z,16.17
2018-01-27T09:46:47.711Z,17.33
2018-01-27T09:49:14.936Z,16.17
2018-01-27T09:51:41.505Z,16.37
2018-01-27T09:54:08.116Z,16.20
2018-01-27T09:56:34.679Z,16.27
2018-01-27T09:59:01.218Z,16.20
2018-01-27T10:01:28.441Z,16.73
2018-01-27T10:03:55.147Z,16.20
2018-01-27T10:06:21.656Z,17.77
2018-01-27T10:08:48.952Z,15.73
2018-01-27T10:11:15.449Z,15.20
2018-01-27T10:13:41.952Z,15.63
2018-01-27T10:16:09.179Z,17.33
2018-01-27T10:18:35.748Z,17.50
2018-01-27T10:21:03.052Z,16.53
2018-01-27T10:23:29.543Z,15.27
2018-01-27T10:25:56.063Z,14.77
2018-01-27T10:28:23.347Z,17.37
2018-01-27T10:30:49.829Z,15.23
2018-01-27T10:33:16.358Z,16.57
2018-01-27T10:35:42.895Z,15.53
2018-01-27T10:38:09.444Z,16.80
2018-01-27T10:40:36.060Z,15.63
2018-01-27T10:43:02.545Z,15.93
2018-01-27T10:45:29.116Z,15.97
2018-01-27T10:48:02.504Z,16.00
2018-01-27T10:50:29.105Z,16.80
2018-01-27T10:52:55.715Z,16.00
2018-01-27T10:55:22.575Z,16.40
2018-01-27T10:57:49.162Z,15.57
2018-01-27T11:00:15.731Z,14.80
2018-01-27T11:02:42.231Z,15.03
2018-01-27T11:05:08.782Z,15.53
2018-01-27T11:07:35.364Z,15.48
2018-01-27T11:10:02.065Z,15.80
2018-01-27T11:12:28.635Z,15.80
2018-01-27T11:14:55.197Z,16.23
2018-01-27T11:17:21.737Z,14.82
2018-01-27T11:19:48.591Z,16.48
2018-01-27T11:22:18.062Z,15.35
2018-01-27T11:24:44.650Z,14.73
2018-01-27T11:27:11.189Z,15.32
2018-01-27T11:29:37.810Z,15.60
2018-01-27T11:32:04.452Z,16.15
2018-01-27T11:34:30.940Z,16.80
2018-01-27T11:36:57.501Z,16.50
2018-01-27T11:39:24.682Z,16.12
2018-01-27T11:41:51.579Z,15.45
2018-01-27T11:44:18.050Z,17.45
2018-01-27T11:46:44.671Z,15.70
2018-01-27T11:49:11.236Z,16.10
2018-01-27T11:51:38.304Z,15.20
2018-01-27T11:54:05.553Z,14.90
2018-01-27T11:56:32.248Z,17.63
2018-01-27T11:58:58.781Z,18.10
2018-01-27T12:01:26.096Z,17.25
2018-01-27T12:03:56.242Z,16.60
2018-01-27T12:06:23.063Z,17.67
2018-01-27T12:08:50.356Z,14.53
2018-01-27T12:11:17.032Z,13.30
2018-01-27T12:13:44.126Z,12.23
2018-01-27T12:16:10.864Z,13.17
2018-01-27T12:18:37.920Z,12.60
2018-01-27T12:21:04.627Z,13.27
2018-01-27T12:23:32.005Z,14.03
2018-01-27T12:25:58.915Z,12.67
2018-01-27T12:28:26.782Z,13.97
2018-01-27T12:30:53.531Z,14.00
2018-01-27T12:33:22.207Z,13.43
2018-01-27T12:35:49.798Z,13.90
2018-01-27T12:38:17.965Z,13.77
2018-01-27T12:40:46.220Z,13.70
2018-01-27T12:43:13.505Z,14.30
2018-01-27T12:45:40.103Z,13.97
2018-01-27T12:48:07.536Z,14.10
2018-01-27T12:50:36.259Z,14.70
2018-01-27T12:53:03.433Z,15.13
2018-01-27T12:55:29.998Z,13.53
2018-01-27T12:57:56.587Z,14.20
2018-01-27T13:00:24.116Z,13.83
2018-01-27T13:02:50.625Z,14.67
2018-01-27T13:05:17.263Z,14.50
2018-01-27T13:07:43.950Z,15.10
2018-01-27T13:10:11.382Z,14.30
2018-01-27T13:12:38.089Z,14.50
2018-01-27T13:15:04.772Z,14.07
2018-01-27T13:17:33.225Z,14.17
2018-01-27T13:19:59.878Z,12.90
2018-01-27T13:22:26.409Z,14.60
2018-01-27T13:24:53.141Z,13.33
2018-01-27T13:27:19.682Z,13.97
2018-01-27T13:29:46.533Z,12.23
2018-01-27T13:32:13.123Z,12.70
2018-01-27T13:34:40.230Z,14.20
2018-01-27T13:37:06.745Z,13.37
2018-01-27T13:39:33.427Z,13.43
2018-01-27T13:41:59.942Z,13.73
2018-01-27T13:44:29.408Z,12.60
2018-01-27T13:46:56.068Z,12.23
2018-01-27T13:49:22.884Z,11.73
2018-01-27T13:51:50.704Z,12.00
2018-01-27T13:54:17.349Z,10.97
2018-01-27T13:56:43.953Z,11.40
2018-01-27T13:59:10.490Z,10.50
2018-01-27T14:01:37.228Z,9.50
2018-01-27T14:04:04.658Z,9.47
2018-01-27T14:06:31.260Z,10.13
2018-01-27T14:08:57.913Z,10.53
2018-01-27T14:11:24.535Z,10.80
2018-01-27T14:13:51.363Z,10.53
2018-01-27T14:16:19.421Z,10.80
2018-01-27T14:18:46.777Z,10.57
2018-01-27T14:21:14.306Z,10.37
2018-01-27T14:23:40.775Z,12.07
2018-01-27T14:26:07.642Z,12.17
2018-01-27T14:28:34.793Z,12.33
2018-01-27T14:31:02.142Z,11.97
2018-01-27T14:33:28.927Z,12.37
2018-01-27T14:35:55.595Z,11.63
2018-01-27T14:38:24.563Z,12.47
2018-01-27T14:40:51.278Z,12.10
2018-01-27T14:43:17.930Z,13.20
2018-01-27T14:45:44.943Z,12.20
2018-01-27T14:48:11.482Z,12.03
2018-01-27T14:50:48.714Z,12.47
2018-01-27T14:53:15.521Z,12.30
2018-01-27T14:55:42.159Z,12.70
2018-01-27T14:58:08.642Z,11.87
2018-01-27T15:00:35.899Z,12.30
2018-01-27T15:03:03.268Z,12.87
2018-01-27T15:05:30.155Z,11.50
2018-01-27T15:07:56.735Z,12.57
2018-01-27T15:10:24.031Z,13.00
2018-01-27T15:12:50.732Z,13.67
2018-01-27T15:15:17.265Z,12.70
2018-01-27T15:17:44.823Z,14.00
2018-01-27T15:20:11.481Z,11.85
2018-01-27T15:22:38.278Z,14.20
2018-01-27T15:25:05.209Z,62.80
2018-01-27T15:27:32.871Z,16.37
2018-01-27T15:29:59.524Z,13.63
2018-01-27T15:32:26.068Z,16.20
2018-01-27T15:34:53.385Z,36.42
2018-01-27T15:37:19.889Z,28.38
2018-01-27T15:39:46.400Z,19.25
2018-01-27T15:42:13.688Z,17.10
2018-01-27T15:44:57.510Z,16.87
2018-01-27T15:47:24.060Z,17.00
2018-01-27T15:49:50.528Z,15.07
2018-01-27T15:52:17.087Z,19.50
2018-01-27T15:54:44.626Z,19.30
2018-01-27T15:57:11.298Z,17.67
2018-01-27T15:59:38.530Z,17.35
2018-01-27T16:02:06.029Z,19.30
2018-01-27T16:04:32.603Z,16.60
2018-01-27T16:06:59.206Z,16.07
2018-01-27T16:09:25.776Z,15.63
2018-01-27T16:11:52.943Z,16.35
2018-01-27T16:14:19.644Z,16.87
2018-01-27T16:16:46.157Z,16.20
2018-01-27T16:19:12.668Z,15.27
2018-01-27T16:21:39.214Z,15.57
2018-01-27T16:24:06.096Z,16.60
2018-01-27T16:26:32.728Z,15.40
2018-01-27T16:28:59.216Z,16.55
2018-01-27T16:31:26.650Z,16.58
2018-01-27T16:33:54.297Z,15.95
2018-01-27T16:36:20.887Z,15.88
2018-01-27T16:38:47.406Z,16.02
2018-01-27T16:41:14.597Z,16.23
2018-01-27T16:43:41.078Z,18.25
2018-01-27T16:46:07.672Z,16.45
2018-01-27T16:48:34.354Z,15.52
2018-01-27T16:51:00.850Z,16.25
2018-01-27T16:53:27.457Z,22.17
2018-01-27T16:55:54.591Z,25.77
2018-01-27T16:58:21.916Z,28.38
2018-01-27T17:00:48.571Z,23.62
2018-01-27T17:03:15.921Z,22.58
2018-01-27T17:05:42.884Z,24.80
2018-01-27T17:08:09.522Z,23.30
2018-01-27T17:10:37.379Z,21.95
2018-01-27T17:13:04.648Z,22.65
2018-01-27T17:15:32.260Z,21.83
2018-01-27T17:17:58.771Z,23.27
2018-01-27T17:20:25.289Z,18.80
2018-01-27T17:22:51.766Z,20.30
2018-01-27T17:25:18.335Z,21.65
2018-01-27T17:27:45.574Z,19.62
2018-01-27T17:30:12.084Z,21.08
2018-01-27T17:32:38.583Z,22.02
2018-01-27T17:35:14.967Z,19.87
2018-01-27T17:37:41.467Z,17.75
2018-01-27T17:40:08.976Z,14.45
2018-01-27T17:42:36.274Z,14.40
2018-01-27T17:45:03.066Z,19.20
2018-01-27T17:47:29.612Z,27.75
2018-01-27T17:49:56.242Z,29.17
2018-01-27T17:52:23.483Z,19.90
2018-01-27T17:54:49.974Z,22.20
2018-01-27T17:57:16.665Z,17.02
2018-01-27T17:59:43.317Z,18.25
2018-01-27T18:02:10.246Z,17.48
2018-01-27T18:04:36.928Z,29.17
2018-01-27T18:07:04.545Z,24.23
2018-01-27T18:09:31.097Z,20.50
2018-01-27T18:11:57.796Z,17.15
2018-01-27T18:14:24.395Z,17.85
2018-01-27T18:16:51.066Z,18.33
2018-01-27T18:19:17.597Z,22.77
2018-01-27T18:21:44.163Z,19.80
2018-01-27T18:24:10.760Z,15.90
2018-01-27T18:26:38.056Z,17.77
2018-01-27T18:29:04.536Z,17.08
2018-01-27T18:31:31.790Z,15.23
2018-01-27T18:33:58.364Z,17.92
2018-01-27T18:36:24.845Z,18.55
2018-01-27T18:38:52.151Z,16.20
2018-01-27T18:41:18.689Z,18.05
2018-01-27T18:43:45.212Z,17.33
2018-01-27T18:46:11.664Z,21.15
2018-01-27T18:48:38.320Z,20.60
2018-01-27T18:51:05.584Z,19.00
2018-01-27T18:53:32.151Z,39.72
2018-01-27T18:55:59.379Z,17.35
2018-01-27T18:58:26.222Z,15.75
2018-01-27T19:00:53.481Z,19.12
2018-01-27T19:03:20.666Z,16.90
2018-01-27T19:05:47.244Z,15.02
2018-01-27T19:08:13.768Z,14.05
2018-01-27T19:10:40.338Z,15.95
2018-01-27T19:13:07.906Z,15.38
2018-01-27T19:15:35.081Z,17.60
2018-01-27T19:18:02.579Z,16.55
2018-01-27T19:20:29.103Z,15.50
2018-01-27T19:22:55.720Z,19.55
2018-01-27T19:25:22.181Z,21.62
2018-01-27T19:27:48.891Z,18.52
2018-01-27T19:30:15.426Z,19.90
2018-01-27T19:32:42.025Z,19.05
2018-01-27T19:35:09.322Z,18.70
2018-01-27T19:37:36.810Z,19.30
2018-01-27T19:40:03.584Z,20.17
2018-01-27T19:42:36.920Z,22.98
2018-01-27T19:45:03.419Z,21.67
2018-01-27T19:47:30.668Z,20.88
2018-01-27T19:49:57.934Z,20.75
2018-01-27T19:52:24.710Z,22.05
2018-01-27T19:54:52.113Z,19.08
2018-01-27T19:57:21.101Z,20.80
2018-01-27T19:59:48.389Z,21.12
2018-01-27T20:02:14.950Z,19.48
2018-01-27T20:04:41.899Z,19.02
2018-01-27T20:07:08.882Z,19.60
2018-01-27T20:09:36.128Z,19.37
2018-01-27T20:12:04.652Z,18.48
2018-01-27T20:14:32.411Z,21.65
2018-01-27T20:17:00.365Z,21.15
2018-01-27T20:19:27.101Z,20.17
2018-01-27T20:21:54.446Z,20.30
2018-01-27T20:24:22.697Z,19.98
2018-01-27T20:26:50.241Z,19.92
2018-01-27T20:29:18.182Z,23.52
2018-01-27T20:31:45.039Z,18.35
2018-01-27T20:34:11.653Z,18.30
2018-01-27T20:36:38.151Z,18.05
2018-01-27T20:39:05.780Z,21.42
2018-01-27T20:41:32.273Z,19.80
2018-01-27T20:44:00.087Z,18.85
2018-01-27T20:46:27.889Z,20.58
2018-01-27T20:48:55.349Z,22.75
2018-01-27T20:51:22.363Z,23.85
2018-01-27T20:53:49.649Z,23.95
2018-01-27T20:56:17.390Z,22.23
2018-01-27T20:58:44.450Z,25.17
2018-01-27T21:01:11.960Z,25.20
2018-01-27T21:03:38.455Z,23.98
2018-01-27T21:06:05.148Z,29.20
2018-01-27T21:08:37.392Z,24.98
2018-01-27T21:11:04.526Z,21.48
2018-01-27T21:13:31.679Z,20.27
2018-01-27T21:15:58.350Z,22.08
2018-01-27T21:18:26.596Z,21.42
2018-01-27T21:20:54.656Z,22.40
2018-01-27T21:23:21.505Z,22.80
2018-01-27T21:25:48.058Z,21.35
2018-01-27T21:28:14.647Z,22.73
2018-01-27T21:30:42.016Z,21.42
2018-01-27T21:33:08.613Z,21.95
2018-01-27T21:35:35.247Z,23.23
2018-01-27T21:38:01.800Z,21.27
2018-01-27T21:40:30.705Z,21.62
2018-01-27T21:42:57.237Z,20.75
2018-01-27T21:45:25.757Z,22.65
2018-01-27T21:47:54.006Z,20.40
2018-01-27T21:50:23.056Z,23.73
2018-01-27T21:52:49.971Z,22.23
2018-01-27T21:55:17.093Z,20.98
2018-01-27T21:57:44.618Z,22.25
2018-01-27T22:00:11.260Z,23.45
2018-01-27T22:02:37.798Z,22.48
2018-01-27T22:05:04.973Z,23.08
2018-01-27T22:07:31.606Z,21.95
2018-01-27T22:09:59.075Z,21.00
2018-01-27T22:12:25.588Z,22.10
2018-01-27T22:14:52.163Z,24.83
2018-01-27T22:17:18.661Z,22.20
2018-01-27T22:19:45.220Z,21.20
2018-01-27T22:22:11.781Z,21.85
2018-01-27T22:24:38.380Z,20.12
2018-01-27T22:27:05.655Z,23.23
2018-01-27T22:29:32.501Z,22.60
2018-01-27T22:31:59.248Z,20.75
2018-01-27T22:34:25.806Z,19.70
2018-01-27T22:36:52.432Z,19.87
2018-01-27T22:39:19.078Z,20.20
2018-01-27T22:41:45.645Z,18.52
2018-01-27T22:44:12.953Z,20.20
2018-01-27T22:46:40.764Z,17.85
2018-01-27T22:49:07.497Z,18.75
2018-01-27T22:51:34.006Z,20.90
2018-01-27T22:54:00.579Z,19.92
2018-01-27T22:56:27.899Z,17.58
2018-01-27T22:58:54.421Z,19.83
2018-01-27T23:01:20.890Z,20.88
2018-01-27T23:03:47.413Z,19.73
2018-01-27T23:06:14.181Z,20.37
2018-01-27T23:08:40.695Z,18.52
2018-01-27T23:11:08.722Z,20.50
2018-01-27T23:13:35.186Z,19.67
2018-01-27T23:16:01.691Z,18.80
2018-01-27T23:18:28.142Z,18.35
2018-01-27T23:20:56.695Z,18.52
2018-01-27T23:23:23.117Z,19.17
2018-01-27T23:25:49.705Z,22.13
2018-01-27T23:28:16.208Z,20.85
2018-01-27T23:30:42.753Z,21.33
2018-01-27T23:33:09.303Z,18.67
2018-01-27T23:35:35.894Z,18.15
2018-01-27T23:38:02.444Z,32.72
2018-01-27T23:40:28.934Z,19.65
2018-01-27T23:42:55.525Z,22.83
2018-01-27T23:45:22.043Z,22.05
2018-01-27T23:47:48.616Z,24.52
2018-01-27T23:50:15.166Z,25.45
2018-01-27T23:52:41.687Z,20.23
2018-01-27T23:55:08.177Z,22.00
2018-01-27T23:57:35.510Z,20.27
